sensor_id;sensor_type;location;lat;lon;timestamp;P1;durP1;ratioP1;P2;durP2;ratioP2
946;SDS011;460;48.734;9.152;2022-08-19T00:00:09;4.90;;;4.43;;
946;SDS011;460;48.734;9.152;2022-08-19T00:02:39;6.20;;;4.90;;
946;SDS011;460;48.734;9.152;2022-08-19T00:05:06;5.70;;;4.83;;
946;SDS011;460;48.734;9.152;2022-08-19T00:07:34;9.20;;;5.97;;
946;SDS011;460;48.734;9.152;2022-08-19T00:10:02;7.10;;;5.00;;
946;SDS011;460;48.734;9.152;2022-08-19T00:12:30;5.47;;;4.87;;
946;SDS011;460;48.734;9.152;2022-08-19T00:14:57;6.20;;;4.40;;
946;SDS011;460;48.734;9.152;2022-08-19T00:17:25;6.00;;;5.40;;
946;SDS011;460;48.734;9.152;2022-08-19T00:19:52;4.93;;;4.30;;
946;SDS011;460;48.734;9.152;2022-08-19T00:22:19;6.73;;;5.10;;
946;SDS011;460;48.734;9.152;2022-08-19T00:24:46;7.77;;;5.73;;
946;SDS011;460;48.734;9.152;2022-08-19T00:27:13;6.53;;;5.53;;
946;SDS011;460;48.734;9.152;2022-08-19T00:29:40;7.63;;;5.40;;
946;SDS011;460;48.734;9.152;2022-08-19T00:32:07;7.83;;;5.00;;
946;SDS011;460;48.734;9.152;2022-08-19T00:34:36;6.17;;;4.73;;
946;SDS011;460;48.734;9.152;2022-08-19T00:37:03;6.33;;;5.07;;
946;SDS011;460;48.734;9.152;2022-08-19T00:39:30;8.10;;;4.03;;
946;SDS011;460;48.734;9.152;2022-08-19T00:41:56;7.57;;;4.97;;
946;SDS011;460;48.734;9.152;2022-08-19T00:44:24;7.27;;;5.07;;
946;SDS011;460;48.734;9.152;2022-08-19T00:46:53;5.27;;;4.53;;
946;SDS011;460;48.734;9.152;2022-08-19T00:49:25;6.30;;;5.37;;
946;SDS011;460;48.734;9.152;2022-08-19T00:52:00;5.57;;;4.60;;
946;SDS011;460;48.734;9.152;2022-08-19T00:54:30;5.30;;;4.80;;
946;SDS011;460;48.734;9.152;2022-08-19T00:56:58;7.90;;;4.90;;
946;SDS011;460;48.734;9.152;2022-08-19T00:59:28;5.57;;;5.00;;
946;SDS011;460;48.734;9.152;2022-08-19T01:01:55;6.90;;;4.90;;
946;SDS011;460;48.734;9.152;2022-08-19T01:04:22;5.00;;;4.50;;
946;SDS011;460;48.734;9.152;2022-08-19T01:06:49;6.43;;;5.00;;
946;SDS011;460;48.734;9.152;2022-08-19T01:09:18;6.60;;;4.80;;
946;SDS011;460;48.734;9.152;2022-08-19T01:11:44;5.67;;;4.50;;
946;SDS011;460;48.734;9.152;2022-08-19T01:14:12;4.07;;;3.60;;
946;SDS011;460;48.734;9.152;2022-08-19T01:16:42;7.53;;;5.00;;
946;SDS011;460;48.734;9.152;2022-08-19T01:19:12;6.30;;;5.50;;
946;SDS011;460;48.734;9.152;2022-08-19T01:21:48;5.80;;;4.50;;
946;SDS011;460;48.734;9.152;2022-08-19T01:24:24;7.77;;;6.37;;
946;SDS011;460;48.734;9.152;2022-08-19T01:26:52;7.47;;;5.40;;
946;SDS011;460;48.734;9.152;2022-08-19T01:29:19;5.57;;;4.63;;
946;SDS011;460;48.734;9.152;2022-08-19T01:31:46;5.20;;;4.27;;
946;SDS011;460;48.734;9.152;2022-08-19T01:34:18;6.73;;;5.53;;
946;SDS011;460;48.734;9.152;2022-08-19T01:36:46;5.93;;;4.70;;
946;SDS011;460;48.734;9.152;2022-08-19T01:39:15;6.47;;;4.87;;
946;SDS011;460;48.734;9.152;2022-08-19T01:41:44;8.37;;;6.07;;
946;SDS011;460;48.734;9.152;2022-08-19T01:44:11;8.40;;;5.43;;
946;SDS011;460;48.734;9.152;2022-08-19T01:46:38;7.00;;;5.30;;
946;SDS011;460;48.734;9.152;2022-08-19T01:49:05;6.63;;;4.67;;
946;SDS011;460;48.734;9.152;2022-08-19T01:51:33;7.60;;;5.10;;
946;SDS011;460;48.734;9.152;2022-08-19T01:54:00;6.40;;;5.60;;
946;SDS011;460;48.734;9.152;2022-08-19T01:56:27;7.40;;;4.70;;
946;SDS011;460;48.734;9.152;2022-08-19T01:58:56;7.43;;;5.30;;
946;SDS011;460;48.734;9.152;2022-08-19T02:01:26;6.87;;;5.07;;
946;SDS011;460;48.734;9.152;2022-08-19T02:03:56;8.20;;;5.20;;
946;SDS011;460;48.734;9.152;2022-08-19T02:06:25;8.83;;;6.67;;
946;SDS011;460;48.734;9.152;2022-08-19T02:08:52;9.47;;;5.20;;
946;SDS011;460;48.734;9.152;2022-08-19T02:11:20;9.37;;;6.10;;
946;SDS011;460;48.734;9.152;2022-08-19T02:13:48;8.57;;;5.87;;
946;SDS011;460;48.734;9.152;2022-08-19T02:16:17;5.60;;;4.63;;
946;SDS011;460;48.734;9.152;2022-08-19T02:18:45;7.50;;;5.37;;
946;SDS011;460;48.734;9.152;2022-08-19T02:21:13;8.23;;;5.80;;
946;SDS011;460;48.734;9.152;2022-08-19T02:23:41;8.80;;;5.83;;
946;SDS011;460;48.734;9.152;2022-08-19T02:26:08;9.10;;;7.00;;
946;SDS011;460;48.734;9.152;2022-08-19T02:28:35;6.53;;;5.30;;
946;SDS011;460;48.734;9.152;2022-08-19T02:31:02;7.00;;;5.50;;
946;SDS011;460;48.734;9.152;2022-08-19T02:33:31;10.00;;;5.03;;
946;SDS011;460;48.734;9.152;2022-08-19T02:35:58;8.30;;;6.20;;
946;SDS011;460;48.734;9.152;2022-08-19T02:38:25;8.00;;;6.40;;
946;SDS011;460;48.734;9.152;2022-08-19T02:40:54;8.17;;;5.63;;
946;SDS011;460;48.734;9.152;2022-08-19T02:43:23;7.23;;;5.80;;
946;SDS011;460;48.734;9.152;2022-08-19T02:45:51;7.23;;;5.20;;
946;SDS011;460;48.734;9.152;2022-08-19T02:48:20;8.00;;;5.93;;
946;SDS011;460;48.734;9.152;2022-08-19T02:50:50;7.67;;;5.27;;
946;SDS011;460;48.734;9.152;2022-08-19T02:53:21;5.93;;;4.87;;
946;SDS011;460;48.734;9.152;2022-08-19T02:55:50;7.47;;;5.70;;
946;SDS011;460;48.734;9.152;2022-08-19T02:58:19;7.40;;;5.83;;
946;SDS011;460;48.734;9.152;2022-08-19T03:00:48;7.23;;;5.40;;
946;SDS011;460;48.734;9.152;2022-08-19T03:03:17;9.23;;;5.83;;
946;SDS011;460;48.734;9.152;2022-08-19T03:05:45;7.13;;;5.07;;
946;SDS011;460;48.734;9.152;2022-08-19T03:08:13;6.60;;;5.40;;
946;SDS011;460;48.734;9.152;2022-08-19T03:10:42;11.17;;;6.10;;
946;SDS011;460;48.734;9.152;2022-08-19T03:13:12;7.33;;;5.00;;
946;SDS011;460;48.734;9.152;2022-08-19T03:15:41;10.00;;;5.90;;
946;SDS011;460;48.734;9.152;2022-08-19T03:18:09;7.50;;;5.40;;
946;SDS011;460;48.734;9.152;2022-08-19T03:20:41;11.07;;;6.20;;
946;SDS011;460;48.734;9.152;2022-08-19T03:23:09;11.03;;;5.97;;
946;SDS011;460;48.734;9.152;2022-08-19T03:25:39;6.87;;;4.70;;
946;SDS011;460;48.734;9.152;2022-08-19T03:28:10;9.20;;;6.50;;
946;SDS011;460;48.734;9.152;2022-08-19T03:30:40;8.17;;;5.93;;
946;SDS011;460;48.734;9.152;2022-08-19T03:33:10;7.70;;;6.33;;
946;SDS011;460;48.734;9.152;2022-08-19T03:35:38;6.20;;;5.53;;
946;SDS011;460;48.734;9.152;2022-08-19T03:38:11;8.73;;;6.07;;
946;SDS011;460;48.734;9.152;2022-08-19T03:40:40;9.47;;;6.30;;
946;SDS011;460;48.734;9.152;2022-08-19T03:43:08;6.90;;;5.83;;
946;SDS011;460;48.734;9.152;2022-08-19T03:45:37;9.83;;;6.33;;
946;SDS011;460;48.734;9.152;2022-08-19T03:48:04;10.47;;;7.47;;
946;SDS011;460;48.734;9.152;2022-08-19T03:50:32;7.03;;;5.57;;
946;SDS011;460;48.734;9.152;2022-08-19T03:53:05;7.60;;;5.30;;
946;SDS011;460;48.734;9.152;2022-08-19T03:55:39;9.20;;;6.60;;
946;SDS011;460;48.734;9.152;2022-08-19T03:58:06;7.87;;;5.90;;
946;SDS011;460;48.734;9.152;2022-08-19T04:00:33;8.43;;;5.57;;
946;SDS011;460;48.734;9.152;2022-08-19T04:03:00;11.07;;;7.40;;
946;SDS011;460;48.734;9.152;2022-08-19T04:05:27;6.40;;;5.60;;
946;SDS011;460;48.734;9.152;2022-08-19T04:07:54;11.63;;;7.87;;
946;SDS011;460;48.734;9.152;2022-08-19T04:10:23;10.30;;;7.40;;
946;SDS011;460;48.734;9.152;2022-08-19T04:12:52;10.43;;;7.90;;
946;SDS011;460;48.734;9.152;2022-08-19T04:15:19;9.53;;;6.10;;
946;SDS011;460;48.734;9.152;2022-08-19T04:17:46;10.47;;;7.93;;
946;SDS011;460;48.734;9.152;2022-08-19T04:20:13;7.70;;;6.40;;
946;SDS011;460;48.734;9.152;2022-08-19T04:22:40;8.90;;;6.63;;
946;SDS011;460;48.734;9.152;2022-08-19T04:25:07;10.43;;;8.23;;
946;SDS011;460;48.734;9.152;2022-08-19T04:27:34;6.73;;;5.90;;
946;SDS011;460;48.734;9.152;2022-08-19T04:30:03;8.40;;;6.53;;
946;SDS011;460;48.734;9.152;2022-08-19T04:32:30;9.27;;;6.20;;
946;SDS011;460;48.734;9.152;2022-08-19T04:34:57;13.23;;;8.90;;
946;SDS011;460;48.734;9.152;2022-08-19T04:37:24;8.10;;;6.87;;
946;SDS011;460;48.734;9.152;2022-08-19T04:39:52;7.73;;;6.63;;
946;SDS011;460;48.734;9.152;2022-08-19T04:42:36;11.97;;;7.93;;
946;SDS011;460;48.734;9.152;2022-08-19T04:45:09;9.87;;;7.40;;
946;SDS011;460;48.734;9.152;2022-08-19T04:47:39;8.40;;;6.23;;
946;SDS011;460;48.734;9.152;2022-08-19T04:50:07;12.27;;;7.90;;
946;SDS011;460;48.734;9.152;2022-08-19T04:52:36;9.27;;;6.90;;
946;SDS011;460;48.734;9.152;2022-08-19T04:55:07;12.00;;;7.40;;
946;SDS011;460;48.734;9.152;2022-08-19T04:57:35;7.63;;;6.10;;
946;SDS011;460;48.734;9.152;2022-08-19T05:00:06;9.93;;;7.57;;
946;SDS011;460;48.734;9.152;2022-08-19T05:02:36;10.10;;;6.60;;
946;SDS011;460;48.734;9.152;2022-08-19T05:05:03;12.17;;;7.97;;
946;SDS011;460;48.734;9.152;2022-08-19T05:07:31;9.53;;;7.17;;
946;SDS011;460;48.734;9.152;2022-08-19T05:09:58;9.33;;;6.77;;
946;SDS011;460;48.734;9.152;2022-08-19T05:12:25;8.90;;;6.33;;
946;SDS011;460;48.734;9.152;2022-08-19T05:14:53;8.30;;;7.03;;
946;SDS011;460;48.734;9.152;2022-08-19T05:17:23;9.53;;;6.97;;
946;SDS011;460;48.734;9.152;2022-08-19T05:19:50;8.37;;;6.80;;
946;SDS011;460;48.734;9.152;2022-08-19T05:22:34;11.23;;;7.10;;
946;SDS011;460;48.734;9.152;2022-08-19T05:25:03;9.63;;;7.30;;
946;SDS011;460;48.734;9.152;2022-08-19T05:27:31;7.60;;;6.87;;
946;SDS011;460;48.734;9.152;2022-08-19T05:29:58;9.83;;;7.20;;
946;SDS011;460;48.734;9.152;2022-08-19T05:32:27;10.47;;;6.73;;
946;SDS011;460;48.734;9.152;2022-08-19T05:34:54;10.07;;;7.50;;
946;SDS011;460;48.734;9.152;2022-08-19T05:37:22;10.03;;;7.23;;
946;SDS011;460;48.734;9.152;2022-08-19T05:39:51;8.97;;;6.43;;
946;SDS011;460;48.734;9.152;2022-08-19T05:42:19;10.17;;;8.20;;
946;SDS011;460;48.734;9.152;2022-08-19T05:44:48;7.47;;;6.67;;
946;SDS011;460;48.734;9.152;2022-08-19T05:47:15;7.83;;;6.80;;
946;SDS011;460;48.734;9.152;2022-08-19T05:49:46;8.67;;;7.03;;
946;SDS011;460;48.734;9.152;2022-08-19T05:52:15;7.90;;;7.10;;
946;SDS011;460;48.734;9.152;2022-08-19T05:54:42;9.20;;;6.00;;
946;SDS011;460;48.734;9.152;2022-08-19T05:57:13;9.33;;;6.33;;
946;SDS011;460;48.734;9.152;2022-08-19T05:59:40;6.00;;;5.40;;
946;SDS011;460;48.734;9.152;2022-08-19T06:02:07;8.53;;;6.20;;
946;SDS011;460;48.734;9.152;2022-08-19T06:04:34;9.67;;;7.20;;
946;SDS011;460;48.734;9.152;2022-08-19T06:07:02;8.20;;;6.50;;
946;SDS011;460;48.734;9.152;2022-08-19T06:09:29;8.30;;;6.67;;
946;SDS011;460;48.734;9.152;2022-08-19T06:11:57;9.10;;;6.93;;
946;SDS011;460;48.734;9.152;2022-08-19T06:14:29;9.70;;;7.70;;
946;SDS011;460;48.734;9.152;2022-08-19T06:17:00;6.40;;;5.77;;
946;SDS011;460;48.734;9.152;2022-08-19T06:19:28;6.97;;;5.77;;
946;SDS011;460;48.734;9.152;2022-08-19T06:21:56;9.60;;;6.10;;
946;SDS011;460;48.734;9.152;2022-08-19T06:24:26;8.73;;;5.30;;
946;SDS011;460;48.734;9.152;2022-08-19T06:26:54;6.80;;;5.97;;
946;SDS011;460;48.734;9.152;2022-08-19T06:29:23;8.70;;;6.50;;
946;SDS011;460;48.734;9.152;2022-08-19T06:31:52;5.97;;;5.33;;
946;SDS011;460;48.734;9.152;2022-08-19T06:34:21;9.70;;;7.43;;
946;SDS011;460;48.734;9.152;2022-08-19T06:36:49;9.37;;;6.73;;
946;SDS011;460;48.734;9.152;2022-08-19T06:39:17;9.93;;;6.87;;
946;SDS011;460;48.734;9.152;2022-08-19T06:41:49;7.10;;;5.77;;
946;SDS011;460;48.734;9.152;2022-08-19T06:44:17;10.60;;;7.37;;
946;SDS011;460;48.734;9.152;2022-08-19T06:46:45;10.93;;;6.37;;
946;SDS011;460;48.734;9.152;2022-08-19T06:49:13;8.80;;;6.40;;
946;SDS011;460;48.734;9.152;2022-08-19T06:51:41;11.10;;;7.47;;
946;SDS011;460;48.734;9.152;2022-08-19T06:54:09;9.67;;;6.43;;
946;SDS011;460;48.734;9.152;2022-08-19T06:56:36;8.73;;;6.60;;
946;SDS011;460;48.734;9.152;2022-08-19T06:59:06;10.60;;;6.97;;
946;SDS011;460;48.734;9.152;2022-08-19T07:01:38;9.83;;;6.63;;
946;SDS011;460;48.734;9.152;2022-08-19T07:04:07;10.27;;;6.67;;
946;SDS011;460;48.734;9.152;2022-08-19T07:06:35;10.87;;;7.47;;
946;SDS011;460;48.734;9.152;2022-08-19T07:09:02;9.13;;;6.87;;
946;SDS011;460;48.734;9.152;2022-08-19T07:11:30;11.80;;;6.77;;
946;SDS011;460;48.734;9.152;2022-08-19T07:13:57;10.27;;;6.77;;
946;SDS011;460;48.734;9.152;2022-08-19T07:16:26;9.40;;;7.50;;
946;SDS011;460;48.734;9.152;2022-08-19T07:18:53;11.27;;;7.00;;
946;SDS011;460;48.734;9.152;2022-08-19T07:21:22;8.63;;;6.63;;
946;SDS011;460;48.734;9.152;2022-08-19T07:23:53;8.10;;;6.07;;
946;SDS011;460;48.734;9.152;2022-08-19T07:26:22;11.13;;;7.10;;
946;SDS011;460;48.734;9.152;2022-08-19T07:28:51;9.83;;;7.00;;
946;SDS011;460;48.734;9.152;2022-08-19T07:31:19;10.00;;;6.10;;
946;SDS011;460;48.734;9.152;2022-08-19T07:33:49;7.30;;;6.10;;
946;SDS011;460;48.734;9.152;2022-08-19T07:36:18;8.50;;;6.97;;
946;SDS011;460;48.734;9.152;2022-08-19T07:38:48;11.03;;;6.57;;
946;SDS011;460;48.734;9.152;2022-08-19T07:41:17;8.43;;;6.87;;
946;SDS011;460;48.734;9.152;2022-08-19T07:43:45;9.73;;;7.17;;
946;SDS011;460;48.734;9.152;2022-08-19T07:46:13;8.57;;;7.07;;
946;SDS011;460;48.734;9.152;2022-08-19T07:48:40;11.30;;;7.73;;
946;SDS011;460;48.734;9.152;2022-08-19T07:51:10;9.47;;;5.43;;
946;SDS011;460;48.734;9.152;2022-08-19T07:53:37;6.33;;;5.67;;
946;SDS011;460;48.734;9.152;2022-08-19T07:56:05;9.10;;;7.20;;
946;SDS011;460;48.734;9.152;2022-08-19T07:58:35;8.20;;;5.80;;
946;SDS011;460;48.734;9.152;2022-08-19T08:01:05;7.87;;;6.03;;
946;SDS011;460;48.734;9.152;2022-08-19T08:03:35;9.37;;;6.80;;
946;SDS011;460;48.734;9.152;2022-08-19T08:06:22;12.53;;;6.43;;
946;SDS011;460;48.734;9.152;2022-08-19T08:09:07;7.17;;;5.47;;
946;SDS011;460;48.734;9.152;2022-08-19T08:11:37;7.13;;;6.27;;
946;SDS011;460;48.734;9.152;2022-08-19T08:14:05;7.87;;;6.30;;
946;SDS011;460;48.734;9.152;2022-08-19T08:16:33;7.27;;;5.60;;
946;SDS011;460;48.734;9.152;2022-08-19T08:19:02;8.07;;;5.80;;
946;SDS011;460;48.734;9.152;2022-08-19T08:21:32;8.33;;;6.17;;
946;SDS011;460;48.734;9.152;2022-08-19T08:23:59;9.77;;;6.57;;
946;SDS011;460;48.734;9.152;2022-08-19T08:26:26;8.97;;;6.10;;
946;SDS011;460;48.734;9.152;2022-08-19T08:28:53;8.03;;;6.60;;
946;SDS011;460;48.734;9.152;2022-08-19T08:31:20;9.23;;;7.30;;
946;SDS011;460;48.734;9.152;2022-08-19T08:33:47;10.80;;;6.63;;
946;SDS011;460;48.734;9.152;2022-08-19T08:36:14;8.23;;;6.40;;
946;SDS011;460;48.734;9.152;2022-08-19T08:38:46;8.77;;;6.80;;
946;SDS011;460;48.734;9.152;2022-08-19T08:41:16;6.77;;;5.43;;
946;SDS011;460;48.734;9.152;2022-08-19T08:43:53;10.60;;;6.60;;
946;SDS011;460;48.734;9.152;2022-08-19T08:46:23;6.90;;;6.20;;
946;SDS011;460;48.734;9.152;2022-08-19T08:48:57;9.00;;;5.70;;
946;SDS011;460;48.734;9.152;2022-08-19T08:51:40;8.73;;;6.13;;
946;SDS011;460;48.734;9.152;2022-08-19T08:54:12;8.93;;;7.67;;
946;SDS011;460;48.734;9.152;2022-08-19T08:56:41;8.73;;;6.57;;
946;SDS011;460;48.734;9.152;2022-08-19T08:59:10;11.80;;;8.93;;
946;SDS011;460;48.734;9.152;2022-08-19T09:01:43;7.60;;;5.43;;
946;SDS011;460;48.734;9.152;2022-08-19T09:04:10;8.10;;;6.47;;
946;SDS011;460;48.734;9.152;2022-08-19T09:06:40;7.20;;;6.00;;
946;SDS011;460;48.734;9.152;2022-08-19T09:09:32;8.27;;;6.80;;
946;SDS011;460;48.734;9.152;2022-08-19T09:12:04;7.57;;;6.73;;
946;SDS011;460;48.734;9.152;2022-08-19T09:14:39;8.30;;;6.87;;
946;SDS011;460;48.734;9.152;2022-08-19T09:17:12;9.20;;;6.60;;
946;SDS011;460;48.734;9.152;2022-08-19T09:19:46;10.63;;;7.03;;
946;SDS011;460;48.734;9.152;2022-08-19T09:22:17;7.37;;;5.83;;
946;SDS011;460;48.734;9.152;2022-08-19T09:24:48;8.03;;;6.40;;
946;SDS011;460;48.734;9.152;2022-08-19T09:27:15;7.57;;;6.77;;
946;SDS011;460;48.734;9.152;2022-08-19T09:29:42;10.53;;;6.47;;
946;SDS011;460;48.734;9.152;2022-08-19T09:32:09;6.33;;;5.27;;
946;SDS011;460;48.734;9.152;2022-08-19T09:34:39;8.40;;;7.23;;
946;SDS011;460;48.734;9.152;2022-08-19T09:37:06;7.83;;;6.50;;
946;SDS011;460;48.734;9.152;2022-08-19T09:39:33;12.10;;;7.80;;
946;SDS011;460;48.734;9.152;2022-08-19T09:42:02;7.37;;;6.60;;
946;SDS011;460;48.734;9.152;2022-08-19T09:44:29;8.20;;;5.10;;
946;SDS011;460;48.734;9.152;2022-08-19T09:46:58;11.63;;;6.67;;
946;SDS011;460;48.734;9.152;2022-08-19T09:49:25;7.97;;;5.73;;
946;SDS011;460;48.734;9.152;2022-08-19T09:51:52;6.80;;;5.50;;
946;SDS011;460;48.734;9.152;2022-08-19T09:54:21;8.00;;;7.10;;
946;SDS011;460;48.734;9.152;2022-08-19T09:56:48;9.20;;;6.70;;
946;SDS011;460;48.734;9.152;2022-08-19T09:59:16;6.20;;;5.27;;
946;SDS011;460;48.734;9.152;2022-08-19T10:01:43;6.80;;;5.50;;
946;SDS011;460;48.734;9.152;2022-08-19T10:04:10;6.97;;;5.20;;
946;SDS011;460;48.734;9.152;2022-08-19T10:06:38;8.90;;;6.40;;
946;SDS011;460;48.734;9.152;2022-08-19T10:09:07;9.27;;;6.50;;
946;SDS011;460;48.734;9.152;2022-08-19T10:11:35;6.70;;;6.00;;
946;SDS011;460;48.734;9.152;2022-08-19T10:14:05;5.80;;;5.20;;
946;SDS011;460;48.734;9.152;2022-08-19T10:16:35;7.30;;;6.17;;
946;SDS011;460;48.734;9.152;2022-08-19T10:19:04;5.80;;;5.20;;
946;SDS011;460;48.734;9.152;2022-08-19T10:21:31;6.70;;;5.87;;
946;SDS011;460;48.734;9.152;2022-08-19T10:24:01;7.27;;;5.40;;
946;SDS011;460;48.734;9.152;2022-08-19T10:26:31;7.43;;;5.40;;
946;SDS011;460;48.734;9.152;2022-08-19T10:28:59;7.50;;;5.73;;
946;SDS011;460;48.734;9.152;2022-08-19T10:31:27;9.03;;;5.63;;
946;SDS011;460;48.734;9.152;2022-08-19T10:33:57;5.73;;;5.13;;
946;SDS011;460;48.734;9.152;2022-08-19T10:36:26;7.00;;;5.27;;
946;SDS011;460;48.734;9.152;2022-08-19T10:38:57;9.07;;;6.57;;
946;SDS011;460;48.734;9.152;2022-08-19T10:41:27;7.30;;;5.43;;
946;SDS011;460;48.734;9.152;2022-08-19T10:43:57;7.47;;;5.07;;
946;SDS011;460;48.734;9.152;2022-08-19T10:46:25;6.23;;;5.53;;
946;SDS011;460;48.734;9.152;2022-08-19T10:48:53;5.47;;;4.93;;
946;SDS011;460;48.734;9.152;2022-08-19T10:51:22;6.23;;;5.47;;
946;SDS011;460;48.734;9.152;2022-08-19T10:54:05;8.80;;;5.60;;
946;SDS011;460;48.734;9.152;2022-08-19T10:56:32;8.27;;;4.90;;
946;SDS011;460;48.734;9.152;2022-08-19T10:59:18;6.97;;;5.30;;
946;SDS011;460;48.734;9.152;2022-08-19T11:01:46;5.33;;;4.60;;
946;SDS011;460;48.734;9.152;2022-08-19T11:04:14;5.37;;;4.70;;
946;SDS011;460;48.734;9.152;2022-08-19T11:06:47;7.50;;;4.60;;
946;SDS011;460;48.734;9.152;2022-08-19T11:09:15;5.67;;;5.17;;
946;SDS011;460;48.734;9.152;2022-08-19T11:11:43;5.50;;;4.90;;
946;SDS011;460;48.734;9.152;2022-08-19T11:14:11;7.97;;;5.60;;
946;SDS011;460;48.734;9.152;2022-08-19T11:16:40;5.13;;;4.67;;
946;SDS011;460;48.734;9.152;2022-08-19T11:19:08;6.30;;;4.67;;
946;SDS011;460;48.734;9.152;2022-08-19T11:21:39;5.87;;;4.87;;
946;SDS011;460;48.734;9.152;2022-08-19T11:24:09;7.23;;;4.83;;
946;SDS011;460;48.734;9.152;2022-08-19T11:26:38;5.23;;;4.73;;
946;SDS011;460;48.734;9.152;2022-08-19T11:29:07;7.70;;;5.30;;
946;SDS011;460;48.734;9.152;2022-08-19T11:31:38;6.20;;;5.10;;
946;SDS011;460;48.734;9.152;2022-08-19T11:34:09;5.73;;;5.07;;
946;SDS011;460;48.734;9.152;2022-08-19T11:36:39;6.70;;;4.47;;
946;SDS011;460;48.734;9.152;2022-08-19T11:39:09;5.13;;;4.63;;
946;SDS011;460;48.734;9.152;2022-08-19T11:41:37;5.80;;;5.30;;
946;SDS011;460;48.734;9.152;2022-08-19T11:44:04;11.63;;;5.37;;
946;SDS011;460;48.734;9.152;2022-08-19T11:46:31;4.93;;;4.43;;
946;SDS011;460;48.734;9.152;2022-08-19T11:48:59;5.93;;;4.53;;
946;SDS011;460;48.734;9.152;2022-08-19T11:51:28;6.30;;;4.40;;
946;SDS011;460;48.734;9.152;2022-08-19T11:53:56;5.60;;;4.53;;
946;SDS011;460;48.734;9.152;2022-08-19T11:56:25;6.90;;;4.70;;
946;SDS011;460;48.734;9.152;2022-08-19T11:58:54;5.30;;;4.37;;
946;SDS011;460;48.734;9.152;2022-08-19T12:01:22;5.40;;;4.90;;
946;SDS011;460;48.734;9.152;2022-08-19T12:03:51;6.00;;;4.90;;
946;SDS011;460;48.734;9.152;2022-08-19T12:06:19;5.10;;;4.43;;
946;SDS011;460;48.734;9.152;2022-08-19T12:08:54;4.90;;;4.50;;
946;SDS011;460;48.734;9.152;2022-08-19T12:11:21;5.83;;;4.87;;
946;SDS011;460;48.734;9.152;2022-08-19T12:13:50;5.27;;;4.50;;
946;SDS011;460;48.734;9.152;2022-08-19T12:16:19;6.40;;;5.80;;
946;SDS011;460;48.734;9.152;2022-08-19T12:18:48;7.10;;;5.87;;
946;SDS011;460;48.734;9.152;2022-08-19T12:21:17;8.47;;;5.77;;
946;SDS011;460;48.734;9.152;2022-08-19T12:23:46;5.50;;;4.67;;
946;SDS011;460;48.734;9.152;2022-08-19T12:26:14;5.07;;;4.57;;
946;SDS011;460;48.734;9.152;2022-08-19T12:28:41;4.80;;;3.90;;
946;SDS011;460;48.734;9.152;2022-08-19T12:31:10;5.17;;;4.30;;
946;SDS011;460;48.734;9.152;2022-08-19T12:33:37;4.90;;;4.50;;
946;SDS011;460;48.734;9.152;2022-08-19T12:36:05;5.37;;;4.40;;
946;SDS011;460;48.734;9.152;2022-08-19T12:38:37;5.73;;;5.17;;
946;SDS011;460;48.734;9.152;2022-08-19T12:41:06;5.50;;;4.33;;
946;SDS011;460;48.734;9.152;2022-08-19T12:43:35;5.10;;;4.20;;
946;SDS011;460;48.734;9.152;2022-08-19T12:46:03;6.07;;;4.83;;
946;SDS011;460;48.734;9.152;2022-08-19T12:48:32;5.67;;;4.97;;
946;SDS011;460;48.734;9.152;2022-08-19T12:51:00;7.13;;;6.30;;
946;SDS011;460;48.734;9.152;2022-08-19T12:53:31;8.50;;;7.00;;
946;SDS011;460;48.734;9.152;2022-08-19T12:55:58;8.23;;;7.00;;
946;SDS011;460;48.734;9.152;2022-08-19T12:58:25;7.83;;;5.93;;
946;SDS011;460;48.734;9.152;2022-08-19T13:00:53;8.63;;;7.10;;
946;SDS011;460;48.734;9.152;2022-08-19T13:03:20;10.50;;;7.40;;
946;SDS011;460;48.734;9.152;2022-08-19T13:05:50;7.70;;;6.87;;
946;SDS011;460;48.734;9.152;2022-08-19T13:08:17;8.47;;;6.60;;
946;SDS011;460;48.734;9.152;2022-08-19T13:10:44;11.70;;;7.73;;
946;SDS011;460;48.734;9.152;2022-08-19T13:13:11;9.97;;;7.37;;
946;SDS011;460;48.734;9.152;2022-08-19T13:15:39;12.10;;;8.57;;
946;SDS011;460;48.734;9.152;2022-08-19T13:18:10;11.40;;;8.00;;
946;SDS011;460;48.734;9.152;2022-08-19T13:20:38;9.77;;;7.90;;
946;SDS011;460;48.734;9.152;2022-08-19T13:23:08;11.00;;;7.57;;
946;SDS011;460;48.734;9.152;2022-08-19T13:25:35;9.97;;;7.10;;
946;SDS011;460;48.734;9.152;2022-08-19T13:28:02;12.03;;;7.27;;
946;SDS011;460;48.734;9.152;2022-08-19T13:30:31;9.07;;;8.00;;
946;SDS011;460;48.734;9.152;2022-08-19T13:33:16;12.80;;;9.17;;
946;SDS011;460;48.734;9.152;2022-08-19T13:35:47;9.77;;;7.77;;
946;SDS011;460;48.734;9.152;2022-08-19T13:38:18;9.43;;;7.17;;
946;SDS011;460;48.734;9.152;2022-08-19T13:40:47;9.37;;;7.43;;
946;SDS011;460;48.734;9.152;2022-08-19T13:43:16;11.43;;;7.97;;
946;SDS011;460;48.734;9.152;2022-08-19T13:45:44;10.13;;;7.17;;
946;SDS011;460;48.734;9.152;2022-08-19T13:48:11;9.57;;;7.73;;
946;SDS011;460;48.734;9.152;2022-08-19T13:50:39;9.17;;;7.87;;
946;SDS011;460;48.734;9.152;2022-08-19T13:53:07;10.83;;;8.10;;
946;SDS011;460;48.734;9.152;2022-08-19T13:55:37;10.33;;;8.10;;
946;SDS011;460;48.734;9.152;2022-08-19T13:58:04;11.33;;;8.07;;
946;SDS011;460;48.734;9.152;2022-08-19T14:00:32;10.53;;;8.13;;
946;SDS011;460;48.734;9.152;2022-08-19T14:03:01;11.27;;;8.33;;
946;SDS011;460;48.734;9.152;2022-08-19T14:05:31;10.93;;;8.40;;
946;SDS011;460;48.734;9.152;2022-08-19T14:07:58;11.77;;;8.37;;
946;SDS011;460;48.734;9.152;2022-08-19T14:10:26;12.97;;;8.07;;
946;SDS011;460;48.734;9.152;2022-08-19T14:12:57;11.00;;;8.27;;
946;SDS011;460;48.734;9.152;2022-08-19T14:15:26;11.73;;;8.30;;
946;SDS011;460;48.734;9.152;2022-08-19T14:17:53;11.37;;;8.10;;
946;SDS011;460;48.734;9.152;2022-08-19T14:20:21;11.83;;;7.40;;
946;SDS011;460;48.734;9.152;2022-08-19T14:22:48;11.20;;;8.20;;
946;SDS011;460;48.734;9.152;2022-08-19T14:25:16;9.00;;;7.77;;
946;SDS011;460;48.734;9.152;2022-08-19T14:27:46;11.13;;;9.20;;
946;SDS011;460;48.734;9.152;2022-08-19T14:30:17;10.03;;;7.30;;
946;SDS011;460;48.734;9.152;2022-08-19T14:32:46;10.87;;;8.30;;
946;SDS011;460;48.734;9.152;2022-08-19T14:35:13;12.17;;;8.67;;
946;SDS011;460;48.734;9.152;2022-08-19T14:37:41;10.90;;;7.77;;
946;SDS011;460;48.734;9.152;2022-08-19T14:40:10;11.30;;;7.73;;
946;SDS011;460;48.734;9.152;2022-08-19T14:42:37;8.80;;;7.90;;
946;SDS011;460;48.734;9.152;2022-08-19T14:45:05;9.80;;;7.33;;
946;SDS011;460;48.734;9.152;2022-08-19T14:47:37;8.20;;;7.20;;
946;SDS011;460;48.734;9.152;2022-08-19T14:50:04;11.93;;;7.80;;
946;SDS011;460;48.734;9.152;2022-08-19T14:52:33;8.03;;;7.23;;
946;SDS011;460;48.734;9.152;2022-08-19T14:54:59;8.80;;;7.90;;
946;SDS011;460;48.734;9.152;2022-08-19T14:57:26;9.00;;;7.63;;
946;SDS011;460;48.734;9.152;2022-08-19T14:59:53;9.43;;;7.00;;
946;SDS011;460;48.734;9.152;2022-08-19T15:02:22;11.33;;;8.73;;
946;SDS011;460;48.734;9.152;2022-08-19T15:04:50;9.13;;;7.30;;
946;SDS011;460;48.734;9.152;2022-08-19T15:07:17;9.20;;;7.23;;
946;SDS011;460;48.734;9.152;2022-08-19T15:09:44;8.57;;;7.00;;
946;SDS011;460;48.734;9.152;2022-08-19T15:12:11;7.73;;;7.03;;
946;SDS011;460;48.734;9.152;2022-08-19T15:14:40;7.57;;;6.80;;
946;SDS011;460;48.734;9.152;2022-08-19T15:17:09;6.50;;;5.73;;
946;SDS011;460;48.734;9.152;2022-08-19T15:19:36;9.03;;;7.73;;
946;SDS011;460;48.734;9.152;2022-08-19T15:22:04;9.13;;;6.97;;
946;SDS011;460;48.734;9.152;2022-08-19T15:24:31;11.00;;;7.53;;
946;SDS011;460;48.734;9.152;2022-08-19T15:27:00;9.50;;;7.17;;
946;SDS011;460;48.734;9.152;2022-08-19T15:29:27;6.73;;;6.03;;
946;SDS011;460;48.734;9.152;2022-08-19T15:31:54;6.83;;;6.07;;
946;SDS011;460;48.734;9.152;2022-08-19T15:34:22;8.90;;;7.90;;
946;SDS011;460;48.734;9.152;2022-08-19T15:36:49;9.37;;;7.37;;
946;SDS011;460;48.734;9.152;2022-08-19T15:39:18;8.63;;;7.43;;
946;SDS011;460;48.734;9.152;2022-08-19T15:41:45;8.40;;;6.80;;
946;SDS011;460;48.734;9.152;2022-08-19T15:44:13;7.37;;;6.60;;
946;SDS011;460;48.734;9.152;2022-08-19T15:46:43;8.40;;;6.83;;
946;SDS011;460;48.734;9.152;2022-08-19T15:49:12;7.10;;;6.40;;
946;SDS011;460;48.734;9.152;2022-08-19T15:51:41;7.57;;;6.63;;